Terminal Aerodrome Forecast
Issued by NWS Cleveland, OH

Home | Current Version | Previous Version | Text Only | Print | Product List | Glossary On
Versions: 1 2 3 4 5 6 7 8 9 10 11 12 13 14 15 16 17 18
000
FTUS41 KCLE 281700
TAFERI
TAF
KERI 281720Z 2818/2918 22006KT P6SM SCT250
     FM290000 18004KT P6SM SCT120 OVC250
     FM290800 17011KT P6SM OVC120
     FM291300 16014G20KT P6SM OVC080
     FM291500 16014G22KT P6SM VCSH OVC045
      TEMPO 2916/2918 -FZRA OVC035=

USA.gov is the U.S. government's official web portal to all federal, state and local government web resources and services.